sensor_id;sensor_type;location;lat;lon;timestamp;P1;durP1;ratioP1;P2;durP2;ratioP2
25511;SDS011;13414;44.534;18.700;2022-12-10T00:01:32;116.95;;;69.85;;
25511;SDS011;13414;44.534;18.700;2022-12-10T00:04:02;95.40;;;55.55;;
25511;SDS011;13414;44.534;18.700;2022-12-10T00:06:31;98.40;;;57.42;;
25511;SDS011;13414;44.534;18.700;2022-12-10T00:09:00;102.00;;;61.88;;
25511;SDS011;13414;44.534;18.700;2022-12-10T00:11:28;103.07;;;59.33;;
25511;SDS011;13414;44.534;18.700;2022-12-10T00:13:56;122.18;;;73.05;;
25511;SDS011;13414;44.534;18.700;2022-12-10T00:16:25;121.72;;;70.78;;
25511;SDS011;13414;44.534;18.700;2022-12-10T00:18:56;115.75;;;66.25;;
25511;SDS011;13414;44.534;18.700;2022-12-10T00:21:26;100.43;;;60.72;;
25511;SDS011;13414;44.534;18.700;2022-12-10T00:23:56;97.35;;;59.38;;
25511;SDS011;13414;44.534;18.700;2022-12-10T00:26:25;100.95;;;58.05;;
25511;SDS011;13414;44.534;18.700;2022-12-10T00:28:53;97.10;;;57.63;;
25511;SDS011;13414;44.534;18.700;2022-12-10T00:31:22;95.25;;;54.88;;
25511;SDS011;13414;44.534;18.700;2022-12-10T00:33:52;78.97;;;45.53;;
25511;SDS011;13414;44.534;18.700;2022-12-10T00:36:21;86.35;;;49.85;;
25511;SDS011;13414;44.534;18.700;2022-12-10T00:38:54;102.43;;;61.90;;
25511;SDS011;13414;44.534;18.700;2022-12-10T00:41:21;130.43;;;79.18;;
25511;SDS011;13414;44.534;18.700;2022-12-10T00:43:49;130.38;;;81.78;;
25511;SDS011;13414;44.534;18.700;2022-12-10T00:46:17;120.13;;;75.78;;
25511;SDS011;13414;44.534;18.700;2022-12-10T00:48:45;130.68;;;80.88;;
25511;SDS011;13414;44.534;18.700;2022-12-10T00:51:14;131.68;;;81.45;;
25511;SDS011;13414;44.534;18.700;2022-12-10T00:53:43;119.50;;;72.07;;
25511;SDS011;13414;44.534;18.700;2022-12-10T00:56:13;76.13;;;45.88;;
25511;SDS011;13414;44.534;18.700;2022-12-10T00:58:42;85.65;;;50.95;;
25511;SDS011;13414;44.534;18.700;2022-12-10T01:01:10;96.55;;;56.15;;
25511;SDS011;13414;44.534;18.700;2022-12-10T01:03:39;105.18;;;63.20;;
25511;SDS011;13414;44.534;18.700;2022-12-10T01:06:07;99.90;;;59.63;;
25511;SDS011;13414;44.534;18.700;2022-12-10T01:08:36;109.53;;;64.05;;
25511;SDS011;13414;44.534;18.700;2022-12-10T01:11:04;106.85;;;62.08;;
25511;SDS011;13414;44.534;18.700;2022-12-10T01:13:33;106.78;;;61.55;;
25511;SDS011;13414;44.534;18.700;2022-12-10T01:16:01;105.53;;;61.72;;
25511;SDS011;13414;44.534;18.700;2022-12-10T01:18:28;97.72;;;56.35;;
25511;SDS011;13414;44.534;18.700;2022-12-10T01:20:59;89.60;;;53.60;;
25511;SDS011;13414;44.534;18.700;2022-12-10T01:23:30;96.28;;;54.78;;
25511;SDS011;13414;44.534;18.700;2022-12-10T01:25:59;84.63;;;50.33;;
25511;SDS011;13414;44.534;18.700;2022-12-10T01:28:28;78.65;;;48.22;;
25511;SDS011;13414;44.534;18.700;2022-12-10T01:31:00;71.10;;;41.53;;
25511;SDS011;13414;44.534;18.700;2022-12-10T01:33:30;73.22;;;41.67;;
25511;SDS011;13414;44.534;18.700;2022-12-10T01:36:01;75.75;;;44.67;;
25511;SDS011;13414;44.534;18.700;2022-12-10T01:38:29;65.72;;;37.20;;
25511;SDS011;13414;44.534;18.700;2022-12-10T01:40:56;64.03;;;38.20;;
25511;SDS011;13414;44.534;18.700;2022-12-10T01:43:24;59.95;;;34.20;;
25511;SDS011;13414;44.534;18.700;2022-12-10T01:45:52;65.07;;;37.72;;
25511;SDS011;13414;44.534;18.700;2022-12-10T01:48:21;63.08;;;37.53;;
25511;SDS011;13414;44.534;18.700;2022-12-10T01:50:50;61.55;;;34.20;;
25511;SDS011;13414;44.534;18.700;2022-12-10T01:53:17;48.70;;;26.60;;
25511;SDS011;13414;44.534;18.700;2022-12-10T01:55:46;62.13;;;37.22;;
25511;SDS011;13414;44.534;18.700;2022-12-10T01:58:15;52.25;;;28.77;;
25511;SDS011;13414;44.534;18.700;2022-12-10T02:00:57;54.63;;;29.88;;
25511;SDS011;13414;44.534;18.700;2022-12-10T02:03:36;54.92;;;30.75;;
25511;SDS011;13414;44.534;18.700;2022-12-10T02:06:15;92.60;;;54.33;;
25511;SDS011;13414;44.534;18.700;2022-12-10T02:08:52;66.35;;;39.10;;
25511;SDS011;13414;44.534;18.700;2022-12-10T02:11:25;58.40;;;37.08;;
25511;SDS011;13414;44.534;18.700;2022-12-10T02:14:00;63.22;;;35.10;;
25511;SDS011;13414;44.534;18.700;2022-12-10T02:16:31;60.33;;;33.42;;
25511;SDS011;13414;44.534;18.700;2022-12-10T02:19:03;60.05;;;34.58;;
25511;SDS011;13414;44.534;18.700;2022-12-10T02:21:40;65.35;;;36.83;;
25511;SDS011;13414;44.534;18.700;2022-12-10T02:24:12;50.78;;;31.23;;
25511;SDS011;13414;44.534;18.700;2022-12-10T02:26:43;59.88;;;32.05;;
25511;SDS011;13414;44.534;18.700;2022-12-10T02:29:19;62.83;;;34.17;;
25511;SDS011;13414;44.534;18.700;2022-12-10T02:31:48;56.95;;;32.60;;
25511;SDS011;13414;44.534;18.700;2022-12-10T02:34:19;60.50;;;33.40;;
25511;SDS011;13414;44.534;18.700;2022-12-10T02:36:50;51.55;;;29.00;;
25511;SDS011;13414;44.534;18.700;2022-12-10T02:39:22;51.92;;;26.60;;
25511;SDS011;13414;44.534;18.700;2022-12-10T02:41:56;43.65;;;24.05;;
25511;SDS011;13414;44.534;18.700;2022-12-10T02:44:29;29.02;;;15.90;;
25511;SDS011;13414;44.534;18.700;2022-12-10T02:47:01;35.95;;;19.35;;
25511;SDS011;13414;44.534;18.700;2022-12-10T02:49:34;35.30;;;19.35;;
25511;SDS011;13414;44.534;18.700;2022-12-10T02:52:07;33.97;;;20.05;;
25511;SDS011;13414;44.534;18.700;2022-12-10T02:54:39;39.60;;;21.15;;
25511;SDS011;13414;44.534;18.700;2022-12-10T02:57:13;46.33;;;25.95;;
25511;SDS011;13414;44.534;18.700;2022-12-10T02:59:54;50.83;;;28.52;;
25511;SDS011;13414;44.534;18.700;2022-12-10T03:02:42;55.75;;;33.20;;
25511;SDS011;13414;44.534;18.700;2022-12-10T03:05:19;44.78;;;23.42;;
25511;SDS011;13414;44.534;18.700;2022-12-10T03:07:53;41.25;;;23.45;;
25511;SDS011;13414;44.534;18.700;2022-12-10T03:10:26;48.22;;;25.63;;
25511;SDS011;13414;44.534;18.700;2022-12-10T03:12:59;42.95;;;24.65;;
25511;SDS011;13414;44.534;18.700;2022-12-10T03:15:32;40.20;;;24.70;;
25511;SDS011;13414;44.534;18.700;2022-12-10T03:18:02;32.63;;;18.65;;
25511;SDS011;13414;44.534;18.700;2022-12-10T03:20:31;31.02;;;19.25;;
25511;SDS011;13414;44.534;18.700;2022-12-10T03:23:00;43.00;;;23.58;;
25511;SDS011;13414;44.534;18.700;2022-12-10T03:25:30;45.55;;;25.10;;
25511;SDS011;13414;44.534;18.700;2022-12-10T03:27:58;39.38;;;24.38;;
25511;SDS011;13414;44.534;18.700;2022-12-10T03:30:27;52.65;;;27.55;;
25511;SDS011;13414;44.534;18.700;2022-12-10T03:32:59;54.58;;;33.05;;
25511;SDS011;13414;44.534;18.700;2022-12-10T03:35:27;47.55;;;27.02;;
25511;SDS011;13414;44.534;18.700;2022-12-10T03:37:55;52.22;;;28.38;;
25511;SDS011;13414;44.534;18.700;2022-12-10T03:40:23;53.42;;;30.45;;
25511;SDS011;13414;44.534;18.700;2022-12-10T03:42:52;54.90;;;27.70;;
25511;SDS011;13414;44.534;18.700;2022-12-10T03:45:19;50.92;;;30.50;;
25511;SDS011;13414;44.534;18.700;2022-12-10T03:47:48;52.35;;;28.00;;
25511;SDS011;13414;44.534;18.700;2022-12-10T03:50:15;46.03;;;26.05;;
25511;SDS011;13414;44.534;18.700;2022-12-10T03:52:43;46.53;;;26.00;;
25511;SDS011;13414;44.534;18.700;2022-12-10T03:55:10;40.13;;;24.02;;
25511;SDS011;13414;44.534;18.700;2022-12-10T03:57:37;40.80;;;24.02;;
25511;SDS011;13414;44.534;18.700;2022-12-10T04:00:05;48.30;;;27.23;;
25511;SDS011;13414;44.534;18.700;2022-12-10T04:02:40;41.47;;;23.87;;
25511;SDS011;13414;44.534;18.700;2022-12-10T04:05:09;39.92;;;24.15;;
25511;SDS011;13414;44.534;18.700;2022-12-10T04:07:36;36.05;;;21.23;;
25511;SDS011;13414;44.534;18.700;2022-12-10T04:10:04;37.88;;;21.20;;
25511;SDS011;13414;44.534;18.700;2022-12-10T04:12:32;40.30;;;23.20;;
25511;SDS011;13414;44.534;18.700;2022-12-10T04:14:59;41.63;;;24.35;;
25511;SDS011;13414;44.534;18.700;2022-12-10T04:17:44;44.17;;;26.15;;
25511;SDS011;13414;44.534;18.700;2022-12-10T04:20:12;47.80;;;28.13;;
25511;SDS011;13414;44.534;18.700;2022-12-10T04:22:53;53.25;;;28.70;;
25511;SDS011;13414;44.534;18.700;2022-12-10T04:25:37;47.47;;;27.23;;
25511;SDS011;13414;44.534;18.700;2022-12-10T04:28:22;46.97;;;28.48;;
25511;SDS011;13414;44.534;18.700;2022-12-10T04:30:50;48.00;;;24.70;;
25511;SDS011;13414;44.534;18.700;2022-12-10T04:33:17;46.85;;;27.13;;
25511;SDS011;13414;44.534;18.700;2022-12-10T04:35:46;41.08;;;24.35;;
25511;SDS011;13414;44.534;18.700;2022-12-10T04:38:13;37.72;;;23.05;;
25511;SDS011;13414;44.534;18.700;2022-12-10T04:40:41;45.05;;;26.63;;
25511;SDS011;13414;44.534;18.700;2022-12-10T04:43:08;54.33;;;30.15;;
25511;SDS011;13414;44.534;18.700;2022-12-10T04:45:35;43.85;;;25.08;;
25511;SDS011;13414;44.534;18.700;2022-12-10T04:48:05;40.35;;;23.85;;
25511;SDS011;13414;44.534;18.700;2022-12-10T04:50:32;42.17;;;26.15;;
25511;SDS011;13414;44.534;18.700;2022-12-10T04:53:01;42.10;;;24.27;;
25511;SDS011;13414;44.534;18.700;2022-12-10T04:55:28;45.42;;;25.45;;
25511;SDS011;13414;44.534;18.700;2022-12-10T04:57:55;39.40;;;22.58;;
25511;SDS011;13414;44.534;18.700;2022-12-10T05:00:23;40.75;;;23.67;;
25511;SDS011;13414;44.534;18.700;2022-12-10T05:02:51;41.28;;;22.23;;
25511;SDS011;13414;44.534;18.700;2022-12-10T05:05:18;34.63;;;20.60;;
25511;SDS011;13414;44.534;18.700;2022-12-10T05:07:46;34.03;;;19.92;;
25511;SDS011;13414;44.534;18.700;2022-12-10T05:10:14;37.63;;;21.85;;
25511;SDS011;13414;44.534;18.700;2022-12-10T05:12:42;47.15;;;24.90;;
25511;SDS011;13414;44.534;18.700;2022-12-10T05:15:09;52.40;;;25.77;;
25511;SDS011;13414;44.534;18.700;2022-12-10T05:17:37;54.33;;;29.05;;
25511;SDS011;13414;44.534;18.700;2022-12-10T05:20:05;54.35;;;29.02;;
25511;SDS011;13414;44.534;18.700;2022-12-10T05:22:33;62.08;;;32.70;;
25511;SDS011;13414;44.534;18.700;2022-12-10T05:25:19;61.35;;;33.42;;
25511;SDS011;13414;44.534;18.700;2022-12-10T05:27:47;59.95;;;32.70;;
25511;SDS011;13414;44.534;18.700;2022-12-10T05:30:14;71.55;;;37.22;;
25511;SDS011;13414;44.534;18.700;2022-12-10T05:32:42;64.13;;;35.75;;
25511;SDS011;13414;44.534;18.700;2022-12-10T05:35:09;55.78;;;32.17;;
25511;SDS011;13414;44.534;18.700;2022-12-10T05:37:36;59.45;;;36.22;;
25511;SDS011;13414;44.534;18.700;2022-12-10T05:40:04;57.10;;;32.70;;
25511;SDS011;13414;44.534;18.700;2022-12-10T05:42:34;52.13;;;29.10;;
25511;SDS011;13414;44.534;18.700;2022-12-10T05:45:01;53.67;;;30.60;;
25511;SDS011;13414;44.534;18.700;2022-12-10T05:47:29;51.00;;;29.85;;
25511;SDS011;13414;44.534;18.700;2022-12-10T05:49:56;50.92;;;29.63;;
25511;SDS011;13414;44.534;18.700;2022-12-10T05:52:23;34.08;;;19.60;;
25511;SDS011;13414;44.534;18.700;2022-12-10T05:54:51;51.90;;;28.80;;
25511;SDS011;13414;44.534;18.700;2022-12-10T05:57:18;39.33;;;24.63;;
25511;SDS011;13414;44.534;18.700;2022-12-10T05:59:47;68.88;;;44.63;;
25511;SDS011;13414;44.534;18.700;2022-12-10T06:02:15;60.40;;;38.72;;
25511;SDS011;13414;44.534;18.700;2022-12-10T06:04:44;68.50;;;37.08;;
25511;SDS011;13414;44.534;18.700;2022-12-10T06:07:11;67.05;;;41.85;;
25511;SDS011;13414;44.534;18.700;2022-12-10T06:09:38;64.60;;;43.10;;
25511;SDS011;13414;44.534;18.700;2022-12-10T06:12:06;61.00;;;39.97;;
25511;SDS011;13414;44.534;18.700;2022-12-10T06:14:33;67.65;;;41.08;;
25511;SDS011;13414;44.534;18.700;2022-12-10T06:17:02;67.50;;;39.60;;
25511;SDS011;13414;44.534;18.700;2022-12-10T06:19:29;62.67;;;37.47;;
25511;SDS011;13414;44.534;18.700;2022-12-10T06:21:57;55.50;;;34.25;;
25511;SDS011;13414;44.534;18.700;2022-12-10T06:24:24;58.53;;;36.20;;
25511;SDS011;13414;44.534;18.700;2022-12-10T06:26:52;64.10;;;36.90;;
25511;SDS011;13414;44.534;18.700;2022-12-10T06:29:19;59.50;;;37.65;;
25511;SDS011;13414;44.534;18.700;2022-12-10T06:31:46;68.50;;;36.63;;
25511;SDS011;13414;44.534;18.700;2022-12-10T06:34:15;60.53;;;39.65;;
25511;SDS011;13414;44.534;18.700;2022-12-10T06:36:42;73.10;;;43.70;;
25511;SDS011;13414;44.534;18.700;2022-12-10T06:39:10;78.97;;;47.42;;
25511;SDS011;13414;44.534;18.700;2022-12-10T06:41:37;78.47;;;45.47;;
25511;SDS011;13414;44.534;18.700;2022-12-10T06:44:09;83.75;;;49.17;;
25511;SDS011;13414;44.534;18.700;2022-12-10T06:46:36;78.40;;;50.67;;
25511;SDS011;13414;44.534;18.700;2022-12-10T06:49:03;91.50;;;54.28;;
25511;SDS011;13414;44.534;18.700;2022-12-10T06:51:32;96.72;;;57.75;;
25511;SDS011;13414;44.534;18.700;2022-12-10T06:54:00;95.30;;;58.63;;
25511;SDS011;13414;44.534;18.700;2022-12-10T06:56:27;90.55;;;53.92;;
25511;SDS011;13414;44.534;18.700;2022-12-10T06:58:54;65.72;;;39.67;;
25511;SDS011;13414;44.534;18.700;2022-12-10T07:01:22;77.53;;;39.40;;
25511;SDS011;13414;44.534;18.700;2022-12-10T07:03:52;74.85;;;45.10;;
25511;SDS011;13414;44.534;18.700;2022-12-10T07:06:21;70.72;;;43.80;;
25511;SDS011;13414;44.534;18.700;2022-12-10T07:08:51;81.13;;;50.00;;
25511;SDS011;13414;44.534;18.700;2022-12-10T07:11:20;84.53;;;53.08;;
25511;SDS011;13414;44.534;18.700;2022-12-10T07:13:48;92.57;;;58.13;;
25511;SDS011;13414;44.534;18.700;2022-12-10T07:16:17;94.40;;;62.47;;
25511;SDS011;13414;44.534;18.700;2022-12-10T07:18:46;78.22;;;49.45;;
25511;SDS011;13414;44.534;18.700;2022-12-10T07:21:14;91.50;;;57.08;;
25511;SDS011;13414;44.534;18.700;2022-12-10T07:23:42;97.95;;;62.60;;
25511;SDS011;13414;44.534;18.700;2022-12-10T07:26:11;63.63;;;39.95;;
25511;SDS011;13414;44.534;18.700;2022-12-10T07:28:38;83.43;;;52.28;;
25511;SDS011;13414;44.534;18.700;2022-12-10T07:31:06;58.03;;;37.08;;
25511;SDS011;13414;44.534;18.700;2022-12-10T07:33:35;83.68;;;52.88;;
25511;SDS011;13414;44.534;18.700;2022-12-10T07:36:04;73.80;;;46.97;;
25511;SDS011;13414;44.534;18.700;2022-12-10T07:38:31;95.68;;;56.38;;
25511;SDS011;13414;44.534;18.700;2022-12-10T07:41:01;106.82;;;56.50;;
25511;SDS011;13414;44.534;18.700;2022-12-10T07:43:32;176.63;;;98.25;;
25511;SDS011;13414;44.534;18.700;2022-12-10T07:46:02;162.35;;;91.10;;
25511;SDS011;13414;44.534;18.700;2022-12-10T07:48:30;164.80;;;94.50;;
25511;SDS011;13414;44.534;18.700;2022-12-10T07:50:59;169.93;;;103.90;;
25511;SDS011;13414;44.534;18.700;2022-12-10T07:53:26;161.05;;;91.70;;
25511;SDS011;13414;44.534;18.700;2022-12-10T07:55:55;145.90;;;87.22;;
25511;SDS011;13414;44.534;18.700;2022-12-10T07:58:22;136.98;;;80.97;;
25511;SDS011;13414;44.534;18.700;2022-12-10T08:00:51;133.73;;;76.13;;
25511;SDS011;13414;44.534;18.700;2022-12-10T08:03:18;118.47;;;67.65;;
25511;SDS011;13414;44.534;18.700;2022-12-10T08:05:46;111.90;;;66.32;;
25511;SDS011;13414;44.534;18.700;2022-12-10T08:08:13;91.68;;;52.90;;
25511;SDS011;13414;44.534;18.700;2022-12-10T08:10:40;75.45;;;45.65;;
25511;SDS011;13414;44.534;18.700;2022-12-10T08:13:08;79.35;;;46.00;;
25511;SDS011;13414;44.534;18.700;2022-12-10T08:15:35;60.97;;;37.38;;
25511;SDS011;13414;44.534;18.700;2022-12-10T08:18:04;57.17;;;32.25;;
25511;SDS011;13414;44.534;18.700;2022-12-10T08:20:31;39.20;;;23.15;;
25511;SDS011;13414;44.534;18.700;2022-12-10T08:22:58;27.42;;;15.50;;
25511;SDS011;13414;44.534;18.700;2022-12-10T08:25:26;26.25;;;14.93;;
25511;SDS011;13414;44.534;18.700;2022-12-10T08:27:53;28.13;;;15.70;;
25511;SDS011;13414;44.534;18.700;2022-12-10T08:30:21;22.55;;;13.50;;
25511;SDS011;13414;44.534;18.700;2022-12-10T08:32:49;21.35;;;11.73;;
25511;SDS011;13414;44.534;18.700;2022-12-10T08:35:17;20.70;;;11.35;;
25511;SDS011;13414;44.534;18.700;2022-12-10T08:37:45;18.25;;;10.90;;
25511;SDS011;13414;44.534;18.700;2022-12-10T08:40:12;16.10;;;9.85;;
25511;SDS011;13414;44.534;18.700;2022-12-10T08:42:39;17.20;;;7.85;;
25511;SDS011;13414;44.534;18.700;2022-12-10T08:45:07;15.55;;;8.82;;
25511;SDS011;13414;44.534;18.700;2022-12-10T08:47:35;20.83;;;9.70;;
25511;SDS011;13414;44.534;18.700;2022-12-10T08:50:04;23.88;;;13.93;;
25511;SDS011;13414;44.534;18.700;2022-12-10T08:52:33;17.38;;;9.20;;
25511;SDS011;13414;44.534;18.700;2022-12-10T08:55:00;19.27;;;10.77;;
25511;SDS011;13414;44.534;18.700;2022-12-10T08:57:28;16.08;;;9.30;;
25511;SDS011;13414;44.534;18.700;2022-12-10T08:59:55;21.25;;;9.32;;
25511;SDS011;13414;44.534;18.700;2022-12-10T09:02:22;12.10;;;5.65;;
25511;SDS011;13414;44.534;18.700;2022-12-10T09:04:50;13.30;;;4.80;;
25511;SDS011;13414;44.534;18.700;2022-12-10T09:07:18;11.38;;;4.35;;
25511;SDS011;13414;44.534;18.700;2022-12-10T09:09:48;11.82;;;5.40;;
25511;SDS011;13414;44.534;18.700;2022-12-10T09:12:15;12.38;;;5.60;;
25511;SDS011;13414;44.534;18.700;2022-12-10T09:14:44;11.25;;;5.70;;
25511;SDS011;13414;44.534;18.700;2022-12-10T09:17:11;10.55;;;6.68;;
25511;SDS011;13414;44.534;18.700;2022-12-10T09:19:39;14.70;;;7.45;;
25511;SDS011;13414;44.534;18.700;2022-12-10T09:22:06;13.85;;;7.90;;
25511;SDS011;13414;44.534;18.700;2022-12-10T09:24:33;16.80;;;9.25;;
25511;SDS011;13414;44.534;18.700;2022-12-10T09:27:02;14.63;;;7.82;;
25511;SDS011;13414;44.534;18.700;2022-12-10T09:29:30;14.35;;;7.45;;
25511;SDS011;13414;44.534;18.700;2022-12-10T09:31:58;14.25;;;7.40;;
25511;SDS011;13414;44.534;18.700;2022-12-10T09:34:25;14.40;;;8.32;;
25511;SDS011;13414;44.534;18.700;2022-12-10T09:36:53;19.25;;;10.93;;
25511;SDS011;13414;44.534;18.700;2022-12-10T09:39:20;19.48;;;11.18;;
25511;SDS011;13414;44.534;18.700;2022-12-10T09:41:51;26.33;;;13.23;;
25511;SDS011;13414;44.534;18.700;2022-12-10T09:44:35;31.25;;;16.05;;
25511;SDS011;13414;44.534;18.700;2022-12-10T09:47:10;24.88;;;15.40;;
25511;SDS011;13414;44.534;18.700;2022-12-10T09:49:42;25.60;;;14.75;;
25511;SDS011;13414;44.534;18.700;2022-12-10T09:52:20;27.17;;;15.52;;
25511;SDS011;13414;44.534;18.700;2022-12-10T09:54:52;14.73;;;8.13;;
25511;SDS011;13414;44.534;18.700;2022-12-10T09:57:24;24.50;;;13.77;;
25511;SDS011;13414;44.534;18.700;2022-12-10T09:59:58;29.70;;;14.90;;
25511;SDS011;13414;44.534;18.700;2022-12-10T10:02:37;14.30;;;8.57;;
25511;SDS011;13414;44.534;18.700;2022-12-10T10:05:08;10.68;;;5.65;;
25511;SDS011;13414;44.534;18.700;2022-12-10T10:07:39;8.85;;;4.07;;
25511;SDS011;13414;44.534;18.700;2022-12-10T10:10:16;9.52;;;2.58;;
25511;SDS011;13414;44.534;18.700;2022-12-10T10:12:50;7.60;;;3.42;;
25511;SDS011;13414;44.534;18.700;2022-12-10T10:15:25;9.48;;;3.70;;
25511;SDS011;13414;44.534;18.700;2022-12-10T10:17:58;8.20;;;3.42;;
25511;SDS011;13414;44.534;18.700;2022-12-10T10:20:29;7.00;;;2.67;;
25511;SDS011;13414;44.534;18.700;2022-12-10T10:23:02;6.45;;;2.88;;
25511;SDS011;13414;44.534;18.700;2022-12-10T10:25:36;11.30;;;3.80;;
25511;SDS011;13414;44.534;18.700;2022-12-10T10:28:05;10.50;;;3.80;;
25511;SDS011;13414;44.534;18.700;2022-12-10T10:30:34;8.00;;;4.20;;
25511;SDS011;13414;44.534;18.700;2022-12-10T10:33:02;8.98;;;4.30;;
25511;SDS011;13414;44.534;18.700;2022-12-10T10:35:41;8.13;;;3.25;;
25511;SDS011;13414;44.534;18.700;2022-12-10T10:38:13;7.77;;;4.00;;
25511;SDS011;13414;44.534;18.700;2022-12-10T10:40:46;9.55;;;4.15;;
25511;SDS011;13414;44.534;18.700;2022-12-10T10:43:20;9.43;;;3.78;;
25511;SDS011;13414;44.534;18.700;2022-12-10T10:45:56;10.50;;;4.20;;
25511;SDS011;13414;44.534;18.700;2022-12-10T10:48:27;12.10;;;4.10;;
25511;SDS011;13414;44.534;18.700;2022-12-10T10:50:56;11.38;;;4.40;;
25511;SDS011;13414;44.534;18.700;2022-12-10T10:53:52;11.35;;;4.72;;
25511;SDS011;13414;44.534;18.700;2022-12-10T10:56:25;7.65;;;3.40;;
25511;SDS011;13414;44.534;18.700;2022-12-10T10:58:56;12.90;;;4.43;;
25511;SDS011;13414;44.534;18.700;2022-12-10T11:01:26;13.95;;;4.88;;
25511;SDS011;13414;44.534;18.700;2022-12-10T11:04:11;15.60;;;6.50;;
25511;SDS011;13414;44.534;18.700;2022-12-10T11:06:41;14.48;;;5.32;;
25511;SDS011;13414;44.534;18.700;2022-12-10T11:09:13;17.30;;;6.07;;
25511;SDS011;13414;44.534;18.700;2022-12-10T11:11:49;13.63;;;6.85;;
25511;SDS011;13414;44.534;18.700;2022-12-10T11:14:22;18.92;;;7.88;;
25511;SDS011;13414;44.534;18.700;2022-12-10T11:16:56;15.45;;;7.68;;
25511;SDS011;13414;44.534;18.700;2022-12-10T11:19:27;21.77;;;8.68;;
25511;SDS011;13414;44.534;18.700;2022-12-10T11:21:55;20.13;;;8.57;;
25511;SDS011;13414;44.534;18.700;2022-12-10T11:24:43;14.52;;;5.05;;
25511;SDS011;13414;44.534;18.700;2022-12-10T11:27:12;11.80;;;4.45;;
25511;SDS011;13414;44.534;18.700;2022-12-10T11:29:46;15.50;;;7.00;;
25511;SDS011;13414;44.534;18.700;2022-12-10T11:32:31;13.32;;;5.18;;
25511;SDS011;13414;44.534;18.700;2022-12-10T11:35:14;15.13;;;5.57;;
25511;SDS011;13414;44.534;18.700;2022-12-10T11:37:51;21.85;;;7.47;;
25511;SDS011;13414;44.534;18.700;2022-12-10T11:40:33;20.40;;;7.03;;
25511;SDS011;13414;44.534;18.700;2022-12-10T11:43:14;22.05;;;7.07;;
25511;SDS011;13414;44.534;18.700;2022-12-10T11:46:04;17.60;;;6.15;;
25511;SDS011;13414;44.534;18.700;2022-12-10T11:48:44;24.40;;;8.57;;
25511;SDS011;13414;44.534;18.700;2022-12-10T11:51:26;26.38;;;11.75;;
25511;SDS011;13414;44.534;18.700;2022-12-10T11:54:06;17.20;;;7.80;;
25511;SDS011;13414;44.534;18.700;2022-12-10T11:56:52;18.23;;;6.30;;
25511;SDS011;13414;44.534;18.700;2022-12-10T11:59:31;15.07;;;6.47;;
25511;SDS011;13414;44.534;18.700;2022-12-10T12:05:11;21.33;;;6.68;;
25511;SDS011;13414;44.534;18.700;2022-12-10T12:07:51;14.23;;;6.07;;
25511;SDS011;13414;44.534;18.700;2022-12-10T12:10:32;19.63;;;5.90;;
25511;SDS011;13414;44.534;18.700;2022-12-10T12:13:10;17.05;;;5.97;;
25511;SDS011;13414;44.534;18.700;2022-12-10T12:15:42;18.58;;;5.30;;
25511;SDS011;13414;44.534;18.700;2022-12-10T12:18:14;21.58;;;6.43;;
25511;SDS011;13414;44.534;18.700;2022-12-10T12:20:49;26.52;;;9.00;;
25511;SDS011;13414;44.534;18.700;2022-12-10T12:23:22;20.50;;;7.45;;
25511;SDS011;13414;44.534;18.700;2022-12-10T12:25:55;19.83;;;8.02;;
25511;SDS011;13414;44.534;18.700;2022-12-10T12:28:27;23.83;;;8.57;;
25511;SDS011;13414;44.534;18.700;2022-12-10T12:31:02;30.08;;;12.60;;
25511;SDS011;13414;44.534;18.700;2022-12-10T12:33:35;28.40;;;10.48;;
25511;SDS011;13414;44.534;18.700;2022-12-10T12:36:12;24.52;;;9.00;;
25511;SDS011;13414;44.534;18.700;2022-12-10T12:38:46;21.70;;;7.90;;
25511;SDS011;13414;44.534;18.700;2022-12-10T12:43:51;22.20;;;7.55;;
25511;SDS011;13414;44.534;18.700;2022-12-10T12:46:26;26.42;;;7.35;;
25511;SDS011;13414;44.534;18.700;2022-12-10T12:49:05;20.23;;;7.50;;
25511;SDS011;13414;44.534;18.700;2022-12-10T12:51:43;19.83;;;6.78;;
25511;SDS011;13414;44.534;18.700;2022-12-10T12:54:17;18.33;;;7.38;;
25511;SDS011;13414;44.534;18.700;2022-12-10T12:56:52;17.13;;;6.18;;
25511;SDS011;13414;44.534;18.700;2022-12-10T12:59:31;19.02;;;8.10;;
25511;SDS011;13414;44.534;18.700;2022-12-10T13:02:15;22.85;;;7.10;;
25511;SDS011;13414;44.534;18.700;2022-12-10T13:04:51;22.63;;;7.60;;
25511;SDS011;13414;44.534;18.700;2022-12-10T13:10:24;23.35;;;9.18;;
25511;SDS011;13414;44.534;18.700;2022-12-10T13:13:05;21.65;;;8.57;;
25511;SDS011;13414;44.534;18.700;2022-12-10T13:15:44;23.35;;;8.55;;
25511;SDS011;13414;44.534;18.700;2022-12-10T13:21:26;25.08;;;9.85;;
25511;SDS011;13414;44.534;18.700;2022-12-10T13:29:41;27.23;;;12.52;;
25511;SDS011;13414;44.534;18.700;2022-12-10T13:32:18;41.60;;;14.48;;
25511;SDS011;13414;44.534;18.700;2022-12-10T13:34:53;42.90;;;14.05;;
25511;SDS011;13414;44.534;18.700;2022-12-10T13:37:54;41.65;;;17.35;;
25511;SDS011;13414;44.534;18.700;2022-12-10T13:40:25;46.53;;;17.80;;
25511;SDS011;13414;44.534;18.700;2022-12-10T13:43:25;42.63;;;17.98;;
25511;SDS011;13414;44.534;18.700;2022-12-10T13:46:22;34.67;;;18.30;;
25511;SDS011;13414;44.534;18.700;2022-12-10T13:48:56;38.50;;;16.65;;
25511;SDS011;13414;44.534;18.700;2022-12-10T13:51:28;36.88;;;18.40;;
25511;SDS011;13414;44.534;18.700;2022-12-10T13:54:16;46.65;;;22.00;;
25511;SDS011;13414;44.534;18.700;2022-12-10T13:57:10;45.92;;;22.92;;
25511;SDS011;13414;44.534;18.700;2022-12-10T13:59:47;47.75;;;23.27;;
25511;SDS011;13414;44.534;18.700;2022-12-10T14:02:35;54.53;;;26.48;;
25511;SDS011;13414;44.534;18.700;2022-12-10T14:05:37;68.05;;;31.48;;
25511;SDS011;13414;44.534;18.700;2022-12-10T14:08:20;71.30;;;30.38;;
25511;SDS011;13414;44.534;18.700;2022-12-10T14:10:52;55.72;;;25.73;;
25511;SDS011;13414;44.534;18.700;2022-12-10T14:13:27;43.92;;;20.42;;
25511;SDS011;13414;44.534;18.700;2022-12-10T14:16:00;46.03;;;21.77;;
25511;SDS011;13414;44.534;18.700;2022-12-10T14:18:30;40.75;;;22.65;;
25511;SDS011;13414;44.534;18.700;2022-12-10T14:20:58;57.30;;;27.98;;
25511;SDS011;13414;44.534;18.700;2022-12-10T14:23:33;58.20;;;28.08;;
25511;SDS011;13414;44.534;18.700;2022-12-10T14:26:04;68.43;;;29.27;;
25511;SDS011;13414;44.534;18.700;2022-12-10T14:28:38;59.35;;;30.10;;
25511;SDS011;13414;44.534;18.700;2022-12-10T14:31:14;60.67;;;33.20;;
25511;SDS011;13414;44.534;18.700;2022-12-10T14:33:45;62.17;;;38.58;;
25511;SDS011;13414;44.534;18.700;2022-12-10T14:36:19;69.35;;;34.40;;
25511;SDS011;13414;44.534;18.700;2022-12-10T14:38:54;67.55;;;36.83;;
25511;SDS011;13414;44.534;18.700;2022-12-10T14:41:22;69.32;;;37.55;;
25511;SDS011;13414;44.534;18.700;2022-12-10T14:43:56;60.08;;;31.83;;
25511;SDS011;13414;44.534;18.700;2022-12-10T14:46:28;57.00;;;32.22;;
25511;SDS011;13414;44.534;18.700;2022-12-10T14:48:57;57.50;;;33.15;;
25511;SDS011;13414;44.534;18.700;2022-12-10T14:51:31;66.65;;;37.03;;
25511;SDS011;13414;44.534;18.700;2022-12-10T14:54:05;69.18;;;38.80;;